This is the latest recevied weather packets stored in our database for station/object ES0THZ-9. If no packets are shown the sender has not sent any weather packets the latest 10 day(s).
| Time | Temp. | Humidity | Pressure | Rain* | Wind** | Luminosity | Snow |
|---|---|---|---|---|---|---|---|
| 1777907138 | 11.67° C | 77% | 1004.5 hPa | 0 mm | - | - | - |
| 1777904730 | 13.33° C | 76% | 1003.9 hPa | 0 mm | - | - | - |
| 1777902323 | 12.78° C | 75% | 1003.4 hPa | 0 mm | - | - | - |
| 1777901722 | 12.78° C | 75% | 1003.4 hPa | 0 mm | - | - | - |
| 1777901118 | 12.78° C | 75% | 1003.3 hPa | 0 mm | - | - | - |
| 1777899914 | 12.78° C | 75% | 1003.3 hPa | 0 mm | - | - | - |
| 1777898710 | 13.33° C | 73% | 1003 hPa | 0 mm | - | - | - |
| 1777896904 | 13.89° C | 73% | 1002.8 hPa | 0 mm | - | - | - |
| 1777896302 | 13.33° C | 74% | 1002.5 hPa | 0 mm | - | - | - |
| 1777893895 | 13.33° C | 74% | 1002.2 hPa | 0 mm | - | - | - |
| 1777892690 | 13.33° C | 74% | 1002 hPa | 0 mm | - | - | - |
| 1777889680 | 13.89° C | 78% | 1001.9 hPa | 0 mm | - | - | - |
| 1777884264 | 9.44° C | 83% | 1003.5 hPa | 0.25 mm | - | - | - |
| 1777883058 | 10° C | 80% | 1003.2 hPa | 0 mm | - | - | - |
| 1777881895 | 10.56° C | 79% | 1003.8 hPa | 0 mm | - | - | - |
| 1777881252 | 11.11° C | 79% | 1003.5 hPa | 0 mm | - | - | - |
| 1777877640 | 10° C | 82% | 1003.5 hPa | 0 mm | - | - | - |
| 1777875252 | 8.89° C | 85% | 1003.7 hPa | 0 mm | - | - | - |
| 1777873447 | 8.89° C | 84% | 1004.7 hPa | 0 mm | - | - | - |
| 1777871621 | 8.89° C | 84% | 1004.5 hPa | 0 mm | - | - | - |
| 1777871020 | 9.44° C | 84% | 1004.4 hPa | 0 mm | - | - | - |
| 1777869814 | 8.89° C | 88% | 1004.7 hPa | 0 mm | - | - | - |
| 1777869213 | 8.33° C | 90% | 1004.9 hPa | 0 mm | - | - | - |
| 1777864999 | 6.11° C | 89% | 1005.9 hPa | 0 mm | - | - | - |
| 1777861988 | 6.11° C | 88% | 1006.2 hPa | 0 mm | - | - | - |
* Rain latest hour (hover to see other rain measurements)
** Current wind speed in m/s (hover to see current wind gust speed)